createdAt,value
2017-10-19T07:09:22.000Z,11.77
2017-10-19T07:10:05.000Z,12.01
2017-10-19T07:11:05.000Z,12.31
2017-10-19T07:12:05.000Z,12.22
2017-10-19T07:13:06.000Z,12.27
2017-10-19T07:14:06.000Z,12.40
2017-10-19T07:15:06.000Z,12.29
2017-10-19T07:16:06.000Z,12.10
2017-10-19T07:17:06.000Z,12.05
2017-10-19T07:18:06.000Z,11.96
2017-10-19T07:19:06.000Z,11.90
2017-10-19T07:20:06.000Z,11.83
2017-10-19T07:21:06.000Z,11.72
2017-10-19T07:22:06.000Z,11.71
2017-10-19T07:23:06.000Z,11.90
2017-10-19T07:24:06.000Z,12.00
2017-10-19T07:25:06.000Z,11.91
2017-10-19T07:26:06.000Z,11.95
2017-10-19T07:27:06.000Z,11.96
2017-10-19T07:28:06.000Z,12.07
2017-10-19T07:29:06.000Z,12.03
2017-10-19T07:30:06.000Z,11.87
2017-10-19T07:31:06.000Z,11.84
2017-10-19T07:32:06.000Z,11.92
2017-10-19T07:33:06.000Z,11.93
2017-10-19T07:34:06.000Z,11.89
2017-10-19T07:35:06.000Z,11.84
2017-10-19T07:36:06.000Z,11.81
2017-10-19T07:37:06.000Z,11.80
2017-10-19T07:38:06.000Z,11.89
2017-10-19T07:39:06.000Z,12.01
2017-10-19T07:40:06.000Z,12.23
2017-10-19T07:41:06.000Z,12.46
2017-10-19T07:42:06.000Z,12.54
2017-10-19T07:43:06.000Z,12.59
2017-10-19T07:44:06.000Z,12.81
2017-10-19T07:45:06.000Z,12.94
2017-10-19T07:46:06.000Z,13.03
2017-10-19T07:47:06.000Z,12.92
2017-10-19T07:48:06.000Z,12.96
2017-10-19T07:49:06.000Z,13.02
2017-10-19T07:50:06.000Z,13.04
2017-10-19T07:51:06.000Z,13.08
2017-10-19T07:52:07.000Z,13.09
2017-10-19T07:53:06.000Z,13.11
2017-10-19T07:54:06.000Z,13.15
2017-10-19T07:55:06.000Z,13.24
2017-10-19T07:56:06.000Z,13.17
2017-10-19T07:57:06.000Z,13.30
2017-10-19T07:58:06.000Z,13.36
2017-10-19T07:59:06.000Z,13.36
2017-10-19T08:00:06.000Z,13.33
2017-10-19T08:01:06.000Z,13.34
2017-10-19T08:02:06.000Z,13.33
2017-10-19T08:03:06.000Z,13.45
2017-10-19T08:04:06.000Z,13.34
2017-10-19T08:05:06.000Z,13.39
2017-10-19T08:06:06.000Z,13.52
2017-10-19T08:07:06.000Z,13.57
2017-10-19T08:08:06.000Z,13.70
2017-10-19T08:09:06.000Z,13.61
2017-10-19T08:10:06.000Z,13.49
2017-10-19T08:11:06.000Z,13.63
2017-10-19T08:12:06.000Z,13.66
2017-10-19T08:13:06.000Z,13.78
2017-10-19T08:14:06.000Z,13.83
2017-10-19T08:15:06.000Z,13.96
2017-10-19T08:16:06.000Z,14.12
2017-10-19T08:17:06.000Z,14.18
2017-10-19T08:18:06.000Z,14.27
2017-10-19T08:19:06.000Z,14.19
2017-10-19T08:20:06.000Z,14.27
2017-10-19T08:21:06.000Z,14.26
2017-10-19T08:22:06.000Z,14.30
2017-10-19T08:23:06.000Z,14.37
2017-10-19T08:24:06.000Z,14.36
2017-10-19T08:25:06.000Z,14.13
2017-10-19T08:26:06.000Z,13.97
2017-10-19T08:27:06.000Z,14.17
2017-10-19T08:28:06.000Z,14.30
2017-10-19T08:29:06.000Z,14.40
2017-10-19T08:30:06.000Z,14.50
2017-10-19T08:31:06.000Z,14.67
2017-10-19T08:32:06.000Z,14.76
2017-10-19T08:33:06.000Z,14.85
2017-10-19T08:34:06.000Z,14.91
2017-10-19T08:35:06.000Z,14.93
2017-10-19T08:36:06.000Z,15.03
2017-10-19T08:37:06.000Z,15.05
2017-10-19T08:38:06.000Z,15.12
2017-10-19T08:39:06.000Z,15.25
2017-10-19T08:40:06.000Z,15.38
2017-10-19T08:41:06.000Z,15.45
2017-10-19T08:42:06.000Z,15.46
2017-10-19T08:43:06.000Z,15.47
2017-10-19T08:44:06.000Z,15.48
2017-10-19T08:45:06.000Z,15.32
2017-10-19T08:46:06.000Z,15.01
2017-10-19T08:47:06.000Z,14.98
2017-10-19T08:48:06.000Z,15.11
2017-10-19T08:49:06.000Z,15.27
2017-10-19T08:50:06.000Z,15.35
2017-10-19T08:51:06.000Z,15.21
2017-10-19T08:52:06.000Z,15.24
2017-10-19T08:53:06.000Z,15.08
2017-10-19T08:54:06.000Z,15.22
2017-10-19T08:55:06.000Z,15.45
2017-10-19T08:56:06.000Z,15.68
2017-10-19T08:57:06.000Z,15.70
2017-10-19T08:58:06.000Z,15.53
2017-10-19T08:59:06.000Z,15.41
2017-10-19T09:00:06.000Z,15.52
2017-10-19T09:01:06.000Z,15.80
2017-10-19T09:02:06.000Z,16.02
2017-10-19T09:03:06.000Z,16.17
2017-10-19T09:04:06.000Z,16.28
2017-10-19T09:05:06.000Z,16.38
2017-10-19T09:06:06.000Z,16.44
2017-10-19T09:07:06.000Z,16.48
2017-10-19T09:08:06.000Z,16.47
2017-10-19T09:09:06.000Z,16.29
2017-10-19T09:10:06.000Z,16.35
2017-10-19T09:11:06.000Z,16.30
2017-10-19T09:12:06.000Z,16.29
2017-10-19T09:13:06.000Z,16.30
2017-10-19T09:14:06.000Z,16.40
2017-10-19T09:15:06.000Z,16.48
2017-10-19T09:16:06.000Z,16.53
2017-10-19T09:17:06.000Z,16.49
2017-10-19T09:18:06.000Z,16.39
2017-10-19T09:19:06.000Z,16.37
2017-10-19T09:20:06.000Z,16.43
2017-10-19T09:21:06.000Z,16.61
2017-10-19T09:22:06.000Z,16.75
2017-10-19T09:23:06.000Z,16.84
2017-10-19T09:24:06.000Z,16.79
2017-10-19T09:25:06.000Z,16.76
2017-10-19T09:26:06.000Z,16.69
2017-10-19T09:27:06.000Z,16.80
2017-10-19T09:28:06.000Z,16.97
2017-10-19T09:29:06.000Z,16.99
2017-10-19T09:30:06.000Z,16.98
2017-10-19T09:31:06.000Z,17.13
2017-10-19T09:32:06.000Z,17.18
2017-10-19T09:33:06.000Z,17.10
2017-10-19T09:34:06.000Z,16.85
2017-10-19T09:35:06.000Z,16.82
2017-10-19T09:36:06.000Z,16.80
2017-10-19T09:37:06.000Z,16.75
2017-10-19T09:38:06.000Z,16.65
2017-10-19T09:39:06.000Z,16.61
2017-10-19T09:40:06.000Z,16.67
2017-10-19T09:41:06.000Z,16.66
2017-10-19T09:42:06.000Z,16.70
2017-10-19T09:43:06.000Z,16.73
2017-10-19T09:44:06.000Z,16.66
2017-10-19T09:45:06.000Z,16.76
2017-10-19T09:46:06.000Z,16.88
2017-10-19T09:47:06.000Z,16.88
2017-10-19T09:48:06.000Z,16.90
2017-10-19T09:49:06.000Z,16.84
2017-10-19T09:50:06.000Z,16.86
2017-10-19T09:51:06.000Z,16.94
2017-10-19T09:52:06.000Z,17.11
2017-10-19T09:53:06.000Z,17.18
2017-10-19T09:54:06.000Z,17.24
2017-10-19T09:55:06.000Z,17.42
2017-10-19T09:56:06.000Z,17.63
2017-10-19T09:57:06.000Z,17.83
2017-10-19T09:58:06.000Z,18.00
2017-10-19T09:59:06.000Z,18.07
2017-10-19T10:00:06.000Z,18.07
2017-10-19T10:01:06.000Z,18.02
2017-10-19T10:02:06.000Z,18.09
2017-10-19T10:03:06.000Z,18.23
2017-10-19T10:04:06.000Z,18.33
2017-10-19T10:05:06.000Z,18.44
2017-10-19T10:06:06.000Z,18.52
2017-10-19T10:07:06.000Z,18.45
2017-10-19T10:08:06.000Z,18.48
2017-10-19T10:09:06.000Z,18.43
2017-10-19T10:10:06.000Z,18.52
2017-10-19T10:11:06.000Z,18.57
2017-10-19T10:12:06.000Z,18.58
2017-10-19T10:13:06.000Z,18.59
2017-10-19T10:14:06.000Z,18.65
2017-10-19T10:15:06.000Z,18.72
2017-10-19T10:16:06.000Z,18.77
2017-10-19T10:17:06.000Z,18.77
2017-10-19T10:18:06.000Z,18.76
2017-10-19T10:19:06.000Z,18.77
2017-10-19T10:20:06.000Z,18.82
2017-10-19T10:21:06.000Z,18.93
2017-10-19T10:22:06.000Z,19.03
2017-10-19T10:23:06.000Z,19.02
2017-10-19T10:24:06.000Z,19.09
2017-10-19T10:25:06.000Z,19.11
2017-10-19T10:26:06.000Z,19.19
2017-10-19T10:27:06.000Z,19.22
2017-10-19T10:28:06.000Z,19.28
2017-10-19T10:29:06.000Z,19.31
2017-10-19T10:30:06.000Z,19.28
2017-10-19T10:31:06.000Z,19.35
2017-10-19T10:32:06.000Z,19.44
2017-10-19T10:33:06.000Z,19.51
2017-10-19T10:34:06.000Z,19.52
2017-10-19T10:35:06.000Z,19.62
2017-10-19T10:36:06.000Z,19.65
2017-10-19T10:37:06.000Z,19.68
2017-10-19T10:38:06.000Z,19.66
2017-10-19T10:39:06.000Z,19.58
2017-10-19T10:40:06.000Z,19.62
2017-10-19T10:41:06.000Z,19.70
2017-10-19T10:42:06.000Z,19.71
2017-10-19T10:43:06.000Z,19.78
2017-10-19T10:44:06.000Z,19.82
2017-10-19T10:45:06.000Z,19.92
2017-10-19T10:46:06.000Z,19.92
2017-10-19T10:47:06.000Z,19.94
2017-10-19T10:48:06.000Z,19.95
2017-10-19T10:49:06.000Z,19.91
2017-10-19T10:50:06.000Z,19.81
2017-10-19T10:51:06.000Z,19.76
2017-10-19T10:52:06.000Z,19.80
2017-10-19T10:53:06.000Z,19.87
2017-10-19T10:54:06.000Z,19.93
2017-10-19T10:55:06.000Z,20.07
2017-10-19T10:56:06.000Z,20.18
2017-10-19T10:57:06.000Z,20.22
2017-10-19T10:58:06.000Z,20.26
2017-10-19T10:59:06.000Z,20.30
2017-10-19T11:00:06.000Z,20.37
2017-10-19T11:01:06.000Z,20.44
2017-10-19T11:02:06.000Z,20.46
2017-10-19T11:03:06.000Z,20.21
2017-10-19T11:04:06.000Z,20.21
2017-10-19T11:05:06.000Z,20.27
2017-10-19T11:06:06.000Z,20.29
2017-10-19T11:07:06.000Z,20.40
2017-10-19T11:08:06.000Z,20.42
2017-10-19T11:09:06.000Z,20.41
2017-10-19T11:10:06.000Z,20.46
2017-10-19T11:11:06.000Z,20.43
2017-10-19T11:12:06.000Z,20.44
2017-10-19T11:13:06.000Z,20.49
2017-10-19T11:14:06.000Z,20.50
2017-10-19T11:15:06.000Z,20.44
2017-10-19T11:16:06.000Z,20.52
2017-10-19T11:17:06.000Z,20.60
2017-10-19T11:18:06.000Z,20.76
2017-10-19T11:19:06.000Z,20.84
2017-10-19T11:20:06.000Z,20.92
2017-10-19T11:21:06.000Z,21.02
2017-10-19T11:22:06.000Z,21.07
2017-10-19T11:23:07.000Z,21.13
2017-10-19T11:24:07.000Z,21.12
2017-10-19T11:25:07.000Z,21.11
2017-10-19T11:26:07.000Z,21.14
2017-10-19T11:27:07.000Z,21.11
2017-10-19T11:28:07.000Z,21.14
2017-10-19T11:29:07.000Z,21.11
2017-10-19T11:30:07.000Z,21.09
2017-10-19T11:31:07.000Z,21.11
2017-10-19T11:32:07.000Z,21.18
2017-10-19T11:33:07.000Z,21.27
2017-10-19T11:34:07.000Z,21.41
2017-10-19T11:35:07.000Z,21.51
2017-10-19T11:36:07.000Z,21.49
2017-10-19T11:37:07.000Z,21.41
2017-10-19T11:38:07.000Z,21.34
2017-10-19T11:39:07.000Z,21.19
2017-10-19T11:40:07.000Z,21.07
2017-10-19T11:41:07.000Z,20.93
2017-10-19T11:42:07.000Z,20.90
2017-10-19T11:43:07.000Z,20.91
2017-10-19T11:44:07.000Z,20.87
2017-10-19T11:45:07.000Z,20.84
2017-10-19T11:46:07.000Z,20.79
2017-10-19T11:47:07.000Z,20.83
2017-10-19T11:48:07.000Z,20.92
2017-10-19T11:49:07.000Z,21.01
2017-10-19T11:50:07.000Z,21.09
2017-10-19T11:51:07.000Z,21.15
2017-10-19T11:52:07.000Z,21.22
2017-10-19T11:53:07.000Z,21.27
2017-10-19T11:54:07.000Z,21.26
2017-10-19T11:55:07.000Z,21.29
2017-10-19T11:56:07.000Z,21.29
2017-10-19T11:57:07.000Z,21.27
2017-10-19T11:58:07.000Z,21.27
2017-10-19T11:59:07.000Z,21.15
2017-10-19T12:00:07.000Z,21.14
2017-10-19T12:01:07.000Z,21.12
2017-10-19T12:02:07.000Z,21.14
2017-10-19T12:03:07.000Z,21.12
2017-10-19T12:04:07.000Z,21.10
2017-10-19T12:05:07.000Z,21.11
2017-10-19T12:06:07.000Z,21.20
2017-10-19T12:07:07.000Z,21.33
2017-10-19T12:08:07.000Z,21.42
2017-10-19T12:09:07.000Z,21.54
2017-10-19T12:10:07.000Z,21.63
2017-10-19T12:11:07.000Z,21.66
2017-10-19T12:12:07.000Z,21.66
2017-10-19T12:13:07.000Z,21.70
2017-10-19T12:14:07.000Z,21.72
2017-10-19T12:15:07.000Z,21.74
2017-10-19T12:16:07.000Z,21.80
2017-10-19T12:17:07.000Z,21.79
2017-10-19T12:18:07.000Z,21.70
2017-10-19T12:19:07.000Z,21.62
2017-10-19T12:20:07.000Z,21.54
2017-10-19T12:21:07.000Z,21.34
2017-10-19T12:22:07.000Z,21.28
2017-10-19T12:23:07.000Z,21.23
2017-10-19T12:24:07.000Z,21.31
2017-10-19T12:25:07.000Z,21.34
2017-10-19T12:26:07.000Z,21.49
2017-10-19T12:27:07.000Z,21.60
2017-10-19T12:28:07.000Z,21.71
2017-10-19T12:29:07.000Z,21.79
2017-10-19T12:30:07.000Z,21.84
2017-10-19T12:31:08.000Z,21.91
2017-10-19T12:32:07.000Z,21.99
2017-10-19T12:33:07.000Z,22.03
2017-10-19T12:34:07.000Z,22.01
2017-10-19T12:35:07.000Z,22.08
2017-10-19T12:36:07.000Z,22.15
2017-10-19T12:37:07.000Z,22.13
2017-10-19T12:38:07.000Z,22.12
2017-10-19T12:39:07.000Z,22.07
2017-10-19T12:40:07.000Z,22.06
2017-10-19T12:41:07.000Z,22.10
2017-10-19T12:42:07.000Z,22.16
2017-10-19T12:43:07.000Z,22.18
2017-10-19T12:44:07.000Z,22.14
2017-10-19T12:45:07.000Z,22.09
2017-10-19T12:46:07.000Z,22.06
2017-10-19T12:47:07.000Z,22.03
2017-10-19T12:48:07.000Z,22.05
2017-10-19T12:49:07.000Z,22.05
2017-10-19T12:50:07.000Z,22.07
2017-10-19T12:51:07.000Z,22.04
2017-10-19T12:52:07.000Z,21.98
2017-10-19T12:53:07.000Z,21.97
2017-10-19T12:54:07.000Z,21.95
2017-10-19T12:55:07.000Z,21.91
2017-10-19T12:56:07.000Z,21.93
2017-10-19T12:57:07.000Z,21.95
2017-10-19T12:58:07.000Z,21.96
2017-10-19T12:59:07.000Z,21.97
2017-10-19T13:00:07.000Z,21.96
2017-10-19T13:01:07.000Z,21.90
2017-10-19T13:03:41.000Z,21.91
2017-10-19T13:03:42.000Z,21.94
2017-10-19T13:04:07.000Z,21.93
2017-10-19T13:07:01.000Z,21.92
2017-10-19T13:07:04.000Z,21.89
2017-10-19T13:07:07.000Z,21.86
2017-10-19T13:08:07.000Z,21.81
2017-10-19T13:09:07.000Z,21.77
2017-10-19T13:10:07.000Z,21.74
